createdAt,value
2022-12-08T00:00:05.049Z,100951.53
2022-12-08T00:02:32.189Z,100945.44
2022-12-08T00:05:17.658Z,100936.13
2022-12-08T00:08:02.638Z,100915.16
2022-12-08T00:13:15.642Z,100918.47
2022-12-08T00:15:42.002Z,100919.00
2022-12-08T00:18:08.410Z,100919.50
2022-12-08T00:20:34.842Z,100920.03
2022-12-08T00:23:01.365Z,100907.66
2022-12-08T00:25:27.715Z,100916.13
2022-12-08T00:27:54.080Z,100899.72
2022-12-08T00:30:20.473Z,100898.88
2022-12-08T00:32:46.846Z,100901.09
2022-12-08T00:35:16.425Z,100881.69
2022-12-08T00:37:42.829Z,100885.25
2022-12-08T00:40:09.633Z,100891.19
2022-12-08T00:42:36.036Z,100882.44
2022-12-08T00:45:02.447Z,100884.94
2022-12-08T00:47:28.811Z,100888.28
2022-12-08T00:49:55.207Z,100885.47
2022-12-08T00:52:21.624Z,100883.91
2022-12-08T00:54:48.073Z,100879.13
2022-12-08T00:57:14.507Z,100876.34
2022-12-08T00:59:40.967Z,100876.50
2022-12-08T01:02:07.378Z,100868.84
2022-12-08T01:04:33.826Z,100865.53
2022-12-08T01:07:00.251Z,100865.66
2022-12-08T01:09:26.661Z,100866.81
2022-12-08T01:11:53.102Z,100854.16
2022-12-08T01:14:19.497Z,100859.03
2022-12-08T01:16:46.070Z,100852.06
2022-12-08T01:19:15.233Z,100843.59
2022-12-08T01:21:42.064Z,100848.88
2022-12-08T01:24:12.090Z,100840.44
2022-12-08T01:26:38.528Z,100843.59
2022-12-08T01:29:05.979Z,100841.09
2022-12-08T01:31:32.411Z,100839.44
2022-12-08T01:33:58.996Z,100839.44
2022-12-08T01:36:28.394Z,100831.97
2022-12-08T01:38:57.654Z,100843.22
2022-12-08T01:41:26.586Z,100849.03
2022-12-08T01:44:08.368Z,100850.25
2022-12-08T01:46:45.814Z,100850.09
2022-12-08T01:49:27.947Z,100857.06
2022-12-08T01:52:02.909Z,100853.59
2022-12-08T01:54:42.318Z,100855.38
2022-12-08T01:57:16.672Z,100844.28
2022-12-08T01:59:48.737Z,100843.59
2022-12-08T02:02:15.326Z,100842.94
2022-12-08T02:04:41.913Z,100836.28
2022-12-08T02:07:10.348Z,100827.50
2022-12-08T02:09:38.519Z,100825.69
2022-12-08T02:12:05.192Z,100820.56
2022-12-08T02:14:32.261Z,100818.91
2022-12-08T02:17:26.122Z,100816.28
2022-12-08T02:20:14.548Z,100812.94
2022-12-08T02:22:51.991Z,100821.03
2022-12-08T02:25:55.436Z,100850.75
2022-12-08T02:28:47.410Z,100837.16
2022-12-08T02:31:38.586Z,100836.50
2022-12-08T02:38:19.771Z,100823.56
2022-12-08T02:41:04.289Z,100818.97
2022-12-08T02:43:44.237Z,100810.72
2022-12-08T02:46:27.339Z,100812.94
2022-12-08T02:48:55.818Z,100801.22
2022-12-08T02:51:22.206Z,100801.91
2022-12-08T02:53:49.237Z,100791.31
2022-12-08T02:56:49.227Z,100789.53
2022-12-08T02:59:36.092Z,100788.84
2022-12-08T03:02:16.716Z,100786.03
2022-12-08T03:04:59.020Z,100786.72
2022-12-08T03:07:51.295Z,100778.09
2022-12-08T03:10:27.989Z,100773.50
2022-12-08T03:13:06.150Z,100771.69
2022-12-08T03:15:34.057Z,100759.44
2022-12-08T03:18:00.922Z,100760.13
2022-12-08T03:20:30.045Z,100753.69
2022-12-08T03:23:00.107Z,100758.69
2022-12-08T03:25:31.130Z,100761.19
2022-12-08T03:27:59.090Z,100758.16
2022-12-08T03:30:27.670Z,100751.88
2022-12-08T03:33:03.788Z,100756.47
2022-12-08T03:35:33.415Z,100783.38
2022-12-08T03:38:12.702Z,100773.34
2022-12-08T03:40:40.030Z,100778.25
2022-12-08T03:43:07.105Z,100769.94
2022-12-08T03:45:33.747Z,100762.69
2022-12-08T03:48:00.236Z,100773.28
2022-12-08T03:50:26.680Z,100775.75
2022-12-08T03:52:53.151Z,100749.03
2022-12-08T03:55:21.401Z,100777.13
2022-12-08T03:57:47.771Z,100769.34
2022-12-08T04:00:15.813Z,100772.00
2022-12-08T04:02:42.223Z,100769.13
2022-12-08T04:05:08.995Z,100763.63
2022-12-08T04:07:35.447Z,100759.44
2022-12-08T04:10:02.185Z,100743.59
2022-12-08T04:12:28.748Z,100738.00
2022-12-08T04:14:55.211Z,100736.66
2022-12-08T04:17:21.630Z,100721.34
2022-12-08T04:19:49.057Z,100718.69
2022-12-08T04:22:15.487Z,100715.69
2022-12-08T04:24:41.919Z,100712.56
2022-12-08T04:27:08.312Z,100711.56
2022-12-08T04:29:34.737Z,100715.06
2022-12-08T04:32:01.470Z,100714.06
2022-12-08T04:34:27.840Z,100714.91
2022-12-08T04:36:54.226Z,100716.06
2022-12-08T04:45:42.524Z,100727.97
2022-12-08T04:48:12.091Z,100739.28
2022-12-08T04:50:43.590Z,100731.28
2022-12-08T04:53:11.134Z,100722.75
2022-12-08T04:55:43.808Z,100722.88
2022-12-08T04:58:15.008Z,100730.28
2022-12-08T05:00:43.214Z,100727.34
2022-12-08T05:03:09.755Z,100724.38
2022-12-08T05:05:36.201Z,100725.38
2022-12-08T05:08:03.040Z,100690.28
2022-12-08T05:10:29.536Z,100709.53
2022-12-08T05:12:55.961Z,100725.22
2022-12-08T05:15:22.321Z,100737.59
2022-12-08T05:17:48.738Z,100729.44
2022-12-08T05:20:15.140Z,100706.16
2022-12-08T05:22:41.495Z,100713.41
2022-12-08T05:25:08.331Z,100713.50
2022-12-08T05:27:35.112Z,100707.38
2022-12-08T05:30:01.986Z,100721.28
2022-12-08T05:32:28.630Z,100717.81
2022-12-08T05:34:54.988Z,100717.66
2022-12-08T05:37:21.410Z,100723.09
2022-12-08T05:39:47.811Z,100723.38
2022-12-08T05:42:14.163Z,100713.94
2022-12-08T05:44:40.571Z,100715.91
2022-12-08T05:47:07.062Z,100722.16
2022-12-08T05:49:33.587Z,100715.06
2022-12-08T05:52:00.044Z,100704.75
2022-12-08T05:54:26.422Z,100699.63
2022-12-08T05:56:52.813Z,100707.09
2022-12-08T05:59:19.343Z,100703.63
2022-12-08T06:01:46.875Z,100694.03
2022-12-08T06:04:13.249Z,100690.44
2022-12-08T06:06:39.627Z,100688.22
2022-12-08T06:09:06.668Z,100682.41
2022-12-08T06:11:33.710Z,100682.94
2022-12-08T06:14:01.014Z,100682.94
2022-12-08T06:16:28.920Z,100688.38
2022-12-08T06:18:56.473Z,100684.09
2022-12-08T06:21:23.664Z,100667.47
2022-12-08T06:23:51.697Z,100684.34
2022-12-08T06:26:18.959Z,100675.25
2022-12-08T06:28:45.501Z,100676.03
2022-12-08T06:31:19.048Z,100679.22
2022-12-08T06:33:47.272Z,100676.75
2022-12-08T06:36:15.157Z,100676.75
2022-12-08T06:38:43.548Z,100678.56
2022-12-08T06:41:11.950Z,100676.88
2022-12-08T06:43:38.632Z,100678.81
2022-12-08T06:46:08.509Z,100671.41
2022-12-08T06:48:35.110Z,100679.03
2022-12-08T06:51:20.069Z,100673.91
2022-12-08T06:53:46.712Z,100681.53
2022-12-08T06:56:14.481Z,100683.31
2022-12-08T06:58:40.851Z,100676.41
2022-12-08T07:01:13.513Z,100665.69
2022-12-08T07:03:40.716Z,100672.34
2022-12-08T07:06:07.289Z,100668.16
2022-12-08T07:08:34.471Z,100674.59
2022-12-08T07:11:07.630Z,100676.94
2022-12-08T07:13:34.027Z,100678.34
2022-12-08T07:16:00.428Z,100680.44
2022-12-08T07:18:26.913Z,100686.03
2022-12-08T07:20:53.310Z,100681.72
2022-12-08T07:23:19.812Z,100672.84
2022-12-08T07:25:46.230Z,100674.19
2022-12-08T07:28:12.655Z,100691.00
2022-12-08T07:30:40.204Z,100708.66
2022-12-08T07:33:06.821Z,100715.38
2022-12-08T07:35:35.025Z,100706.91
2022-12-08T07:38:02.164Z,100708.72
2022-12-08T07:40:28.581Z,100707.50
2022-12-08T07:42:55.052Z,100706.94
2022-12-08T07:45:22.896Z,100700.88
2022-12-08T07:47:51.072Z,100701.47
2022-12-08T07:50:18.560Z,100691.38
2022-12-08T07:52:45.010Z,100685.25
2022-12-08T07:55:11.434Z,100691.06
2022-12-08T07:57:37.897Z,100696.75
2022-12-08T08:00:05.689Z,100704.13
2022-12-08T08:02:32.671Z,100690.69
2022-12-08T08:04:59.402Z,100681.38
2022-12-08T08:07:27.071Z,100682.06
2022-12-08T08:09:54.157Z,100681.53
2022-12-08T08:12:31.226Z,100692.47
2022-12-08T08:14:59.037Z,100682.75
2022-12-08T08:17:25.595Z,100694.41
2022-12-08T08:19:52.124Z,100697.59
2022-12-08T08:22:18.570Z,100697.19
2022-12-08T08:24:45.413Z,100700.09
2022-12-08T08:27:12.446Z,100710.38
2022-12-08T08:29:38.956Z,100703.72
2022-12-08T08:32:05.489Z,100701.47
2022-12-08T08:34:31.897Z,100709.94
2022-12-08T08:36:58.463Z,100698.94
2022-12-08T08:39:24.967Z,100699.47
2022-12-08T08:41:51.394Z,100697.28
2022-12-08T08:44:17.876Z,100683.69
2022-12-08T08:46:44.474Z,100683.41
2022-12-08T08:49:10.982Z,100688.81
2022-12-08T08:51:37.617Z,100678.56
2022-12-08T08:54:04.188Z,100685.66
2022-12-08T08:56:30.841Z,100689.13
2022-12-08T08:58:57.383Z,100685.50
2022-12-08T09:01:27.056Z,100692.72
2022-12-08T09:03:55.001Z,100684.38
2022-12-08T09:06:22.495Z,100688.22
2022-12-08T09:08:50.077Z,100693.09
2022-12-08T09:11:18.661Z,100681.53
2022-12-08T09:13:48.271Z,100684.88
2022-12-08T09:16:15.385Z,100693.03
2022-12-08T09:18:42.098Z,100681.94
2022-12-08T09:21:13.126Z,100699.22
2022-12-08T09:23:39.990Z,100712.13
2022-12-08T09:26:06.923Z,100732.00
2022-12-08T09:28:33.719Z,100715.06
2022-12-08T09:31:00.506Z,100709.56
2022-12-08T09:33:27.156Z,100709.56
2022-12-08T09:35:53.645Z,100707.06
2022-12-08T09:38:20.097Z,100705.69
2022-12-08T09:40:52.948Z,100697.75
2022-12-08T09:43:25.395Z,100704.84
2022-12-08T09:45:52.814Z,100697.06
2022-12-08T09:48:22.823Z,100704.03
2022-12-08T09:50:55.819Z,100697.75
2022-12-08T09:53:35.349Z,100675.97
2022-12-08T09:56:08.751Z,100685.94
2022-12-08T09:58:40.826Z,100697.56
2022-12-08T10:01:10.954Z,100691.16
2022-12-08T10:03:37.719Z,100692.28
2022-12-08T10:06:18.613Z,100689.50
2022-12-08T10:09:12.448Z,100708.38
2022-12-08T10:11:51.500Z,100709.88
2022-12-08T10:14:34.827Z,100687.00
2022-12-08T10:17:10.246Z,100698.47
2022-12-08T10:19:39.261Z,100680.28
2022-12-08T10:22:23.368Z,100685.28
2022-12-08T10:24:59.116Z,100678.56
2022-12-08T10:27:26.306Z,100678.66
2022-12-08T10:29:52.912Z,100677.06
2022-12-08T10:32:24.442Z,100662.75
2022-12-08T10:35:01.725Z,100661.59
2022-12-08T10:37:28.324Z,100650.31
2022-12-08T10:40:10.144Z,100647.34
2022-12-08T10:42:41.104Z,100645.75
2022-12-08T10:45:10.354Z,100653.22
2022-12-08T10:47:45.121Z,100644.69
2022-12-08T10:50:28.785Z,100640.59
2022-12-08T10:53:12.467Z,100630.69
2022-12-08T10:55:50.973Z,100629.69
2022-12-08T10:58:47.799Z,100625.56
2022-12-08T11:01:18.662Z,100620.97
2022-12-08T11:03:45.093Z,100612.72
2022-12-08T11:06:30.539Z,100614.69
2022-12-08T11:09:03.231Z,100616.03
2022-12-08T11:11:47.143Z,100606.59
2022-12-08T11:14:19.811Z,100610.59
2022-12-08T11:16:46.325Z,100602.84
2022-12-08T11:19:18.130Z,100605.31
2022-12-08T11:21:46.163Z,100606.28
2022-12-08T11:24:15.377Z,100605.50
2022-12-08T11:26:50.067Z,100596.22
2022-12-08T11:29:17.467Z,100588.56
2022-12-08T11:31:49.937Z,100599.34
2022-12-08T11:34:39.180Z,100605.63
2022-12-08T11:37:10.836Z,100605.09
2022-12-08T11:39:49.019Z,100602.78
2022-12-08T11:42:19.056Z,100620.28
2022-12-08T11:45:01.165Z,100590.97
2022-12-08T11:47:43.244Z,100621.78
2022-12-08T11:50:21.901Z,100604.94
2022-12-08T11:52:51.404Z,100600.78
2022-12-08T11:55:48.179Z,100598.16
2022-12-08T11:58:34.882Z,100595.34
2022-12-08T12:01:01.652Z,100578.09
2022-12-08T12:03:35.373Z,100580.59
2022-12-08T12:06:38.259Z,100566.22
2022-12-08T12:09:15.977Z,100558.78
2022-12-08T12:12:16.683Z,100564.97
2022-12-08T12:15:21.460Z,100559.13
2022-12-08T12:18:22.042Z,100551.72
2022-12-08T12:20:59.129Z,100555.22
2022-12-08T12:23:42.965Z,100548.09
2022-12-08T12:26:19.029Z,100544.28
2022-12-08T12:29:08.493Z,100547.22
2022-12-08T12:31:38.388Z,100549.09
2022-12-08T12:34:16.769Z,100548.78
2022-12-08T12:36:54.454Z,100546.84
2022-12-08T12:39:27.460Z,100552.00
2022-12-08T12:42:05.083Z,100560.78
2022-12-08T12:44:34.377Z,100563.25
2022-12-08T12:47:03.137Z,100563.91
2022-12-08T12:49:43.628Z,100564.88
2022-12-08T12:52:10.118Z,100559.22
2022-12-08T12:54:36.573Z,100552.41
2022-12-08T12:57:09.232Z,100553.69
2022-12-08T12:59:56.284Z,100537.63
2022-12-08T13:02:31.189Z,100543.91
2022-12-08T13:05:13.633Z,100539.44
2022-12-08T13:07:51.049Z,100545.72
2022-12-08T13:10:31.817Z,100536.97
2022-12-08T13:13:03.366Z,100534.69
2022-12-08T13:15:40.438Z,100530.84
2022-12-08T13:18:18.472Z,100522.13
2022-12-08T13:21:17.228Z,100503.69
2022-12-08T13:23:47.209Z,100525.16
2022-12-08T13:26:24.237Z,100525.47
2022-12-08T13:29:01.236Z,100538.03
2022-12-08T13:31:45.258Z,100552.09
2022-12-08T13:34:41.195Z,100544.31
2022-12-08T13:37:10.627Z,100547.63
2022-12-08T13:39:44.882Z,100548.91
2022-12-08T13:42:24.880Z,100541.16
2022-12-08T13:45:21.340Z,100533.03
2022-12-08T13:48:30.514Z,100533.84
2022-12-08T13:57:08.365Z,100512.44
2022-12-08T13:59:44.192Z,100509.13
2022-12-08T14:02:27.244Z,100505.16
2022-12-08T14:05:17.558Z,100506.44
2022-12-08T14:07:43.129Z,100505.25
2022-12-08T14:10:18.190Z,100497.31
2022-12-08T14:12:48.023Z,100499.44
2022-12-08T14:15:15.728Z,100500.97
2022-12-08T14:17:51.484Z,100501.72
2022-12-08T14:20:24.407Z,100507.16
2022-12-08T14:22:52.339Z,100502.88
2022-12-08T14:25:20.065Z,100495.09
2022-12-08T14:27:48.918Z,100505.34
2022-12-08T14:30:25.396Z,100506.72
2022-12-08T14:32:58.611Z,100506.09
2022-12-08T14:35:33.360Z,100508.94
2022-12-08T14:38:05.760Z,100506.75
2022-12-08T14:40:37.920Z,100507.53
2022-12-08T14:43:07.383Z,100506.19
2022-12-08T14:45:54.636Z,100488.78
2022-12-08T14:48:42.147Z,100512.91
2022-12-08T14:51:21.050Z,100504.41
2022-12-08T14:53:52.239Z,100500.03
2022-12-08T14:56:23.332Z,100495.53
2022-12-08T14:59:02.674Z,100470.19
2022-12-08T15:01:29.492Z,100504.09
2022-12-08T15:04:27.202Z,100504.41
2022-12-08T15:07:00.614Z,100507.41
2022-12-08T15:09:37.331Z,100510.59
2022-12-08T15:12:12.805Z,100498.97
2022-12-08T15:14:59.481Z,100496.34
2022-12-08T15:17:34.379Z,100499.16
2022-12-08T15:20:03.359Z,100492.25
2022-12-08T15:22:31.394Z,100482.53
2022-12-08T15:24:58.547Z,100483.91
2022-12-08T15:27:25.834Z,100479.16
2022-12-08T15:29:52.646Z,100490.69
2022-12-08T15:32:21.249Z,100492.34
2022-12-08T15:34:48.159Z,100492.50
2022-12-08T15:37:26.341Z,100481.72
2022-12-08T15:39:53.284Z,100480.66
2022-12-08T15:42:19.738Z,100487.31
2022-12-08T15:44:46.287Z,100478.91
2022-12-08T15:47:18.346Z,100478.25
2022-12-08T15:49:47.230Z,100474.97
2022-12-08T15:52:16.117Z,100483.88
2022-12-08T15:54:42.566Z,100482.38
2022-12-08T15:57:53.481Z,100486.16
2022-12-08T16:00:50.679Z,100491.59
2022-12-08T16:04:08.964Z,100481.84
2022-12-08T16:07:12.969Z,100482.78
2022-12-08T16:09:11.945Z,100463.69
2022-12-08T16:12:09.088Z,100475.31
2022-12-08T16:17:23.868Z,100473.44
2022-12-08T16:19:50.283Z,100466.22
2022-12-08T16:25:22.470Z,100462.66
2022-12-08T16:28:05.496Z,100465.69
2022-12-08T16:30:39.089Z,100473.16
2022-12-08T16:33:05.771Z,100472.56
2022-12-08T16:35:32.603Z,100463.47
2022-12-08T16:37:59.189Z,100452.16
2022-12-08T16:40:25.714Z,100454.69
2022-12-08T16:42:52.357Z,100450.81
2022-12-08T16:45:21.152Z,100455.41
2022-12-08T16:47:54.707Z,100443.66
2022-12-08T16:50:24.866Z,100437.69
2022-12-08T16:52:57.364Z,100433.31
2022-12-08T16:55:24.886Z,100431.56
2022-12-08T16:57:51.331Z,100432.47
2022-12-08T17:00:20.919Z,100435.53
2022-12-08T17:02:48.062Z,100430.84
2022-12-08T17:05:15.846Z,100445.28
2022-12-08T17:07:44.343Z,100442.81
2022-12-08T17:10:13.953Z,100443.41
2022-12-08T17:12:40.652Z,100442.25
2022-12-08T17:15:11.548Z,100443.34
2022-12-08T17:17:39.343Z,100440.63
2022-12-08T17:20:08.395Z,100439.25
2022-12-08T17:22:35.540Z,100443.81
2022-12-08T17:25:03.320Z,100432.63
2022-12-08T17:27:30.148Z,100441.19
2022-12-08T17:29:56.678Z,100442.47
2022-12-08T17:32:23.289Z,100449.53
2022-12-08T17:34:50.362Z,100443.47
2022-12-08T17:37:17.544Z,100455.00
2022-12-08T17:39:44.638Z,100457.03
2022-12-08T17:42:11.134Z,100460.22
2022-12-08T17:44:37.717Z,100456.34
2022-12-08T17:47:05.049Z,100451.13
2022-12-08T17:49:32.892Z,100444.75
2022-12-08T17:52:02.832Z,100454.84
2022-12-08T17:54:30.469Z,100450.72
2022-12-08T17:56:58.647Z,100452.38
2022-12-08T17:59:27.041Z,100455.94
2022-12-08T18:01:54.714Z,100461.22
2022-12-08T18:04:21.739Z,100468.00
2022-12-08T18:06:48.174Z,100467.16
2022-12-08T18:09:15.987Z,100464.00
2022-12-08T18:11:43.254Z,100474.53
2022-12-08T18:14:11.100Z,100485.06
2022-12-08T18:16:40.201Z,100485.06
2022-12-08T18:19:08.728Z,100492.13
2022-12-08T18:21:36.146Z,100489.78
2022-12-08T18:24:03.270Z,100489.66
2022-12-08T18:26:30.716Z,100491.72
2022-12-08T18:28:58.048Z,100483.97
2022-12-08T18:31:24.711Z,100481.63
2022-12-08T18:33:52.924Z,100489.09
2022-12-08T18:36:23.749Z,100494.22
2022-12-08T18:38:51.041Z,100479.16
2022-12-08T18:41:20.085Z,100495.63
2022-12-08T18:43:47.583Z,100498.41
2022-12-08T18:46:14.843Z,100497.41
2022-12-08T18:48:47.250Z,100503.53
2022-12-08T18:51:19.732Z,100506.56
2022-12-08T18:53:46.824Z,100511.81
2022-12-08T18:56:27.682Z,100515.44
2022-12-08T18:58:59.980Z,100517.53
2022-12-08T19:01:30.443Z,100509.06
2022-12-08T19:04:26.618Z,100518.38
2022-12-08T19:06:45.453Z,100516.03
2022-12-08T19:09:12.673Z,100516.69
2022-12-08T19:11:39.112Z,100520.16
2022-12-08T19:14:05.608Z,100523.50
2022-12-08T19:16:32.071Z,100523.50
2022-12-08T19:18:58.690Z,100524.31
2022-12-08T19:21:25.592Z,100529.19
2022-12-08T19:23:52.844Z,100524.47
2022-12-08T19:26:19.799Z,100524.47
2022-12-08T19:28:46.230Z,100520.31
2022-12-08T19:31:12.736Z,100528.47
2022-12-08T19:33:40.246Z,100534.16
2022-12-08T19:36:08.287Z,100537.38
2022-12-08T19:38:55.139Z,100533.91
2022-12-08T19:41:41.021Z,100545.53
2022-12-08T19:44:35.855Z,100534.72
2022-12-08T19:47:02.824Z,100547.88
2022-12-08T19:49:29.904Z,100539.44
2022-12-08T19:51:56.657Z,100554.22
2022-12-08T19:54:23.462Z,100556.47
2022-12-08T19:56:50.014Z,100555.06
2022-12-08T19:59:16.626Z,100558.53
2022-12-08T20:01:44.180Z,100552.31
2022-12-08T20:04:14.918Z,100563.94
2022-12-08T20:06:42.257Z,100558.53
2022-12-08T20:09:10.316Z,100554.78
2022-12-08T20:11:37.458Z,100559.50
2022-12-08T20:14:03.998Z,100558.81
2022-12-08T20:16:30.588Z,100556.03
2022-12-08T20:18:57.626Z,100556.16
2022-12-08T20:21:24.197Z,100565.03
2022-12-08T20:23:50.754Z,100554.88
2022-12-08T20:26:19.706Z,100573.72
2022-12-08T20:28:46.493Z,100576.53
2022-12-08T20:31:21.548Z,100573.28
2022-12-08T20:33:48.506Z,100576.69
2022-12-08T20:36:18.630Z,100567.81
2022-12-08T20:38:46.465Z,100585.25
2022-12-08T20:41:13.009Z,100585.13
2022-12-08T20:43:39.426Z,100588.28
2022-12-08T20:46:10.645Z,100581.50
2022-12-08T20:48:37.555Z,100581.66
2022-12-08T20:51:04.757Z,100580.44
2022-12-08T20:53:31.159Z,100593.59
2022-12-08T20:55:57.748Z,100589.25
2022-12-08T20:58:24.352Z,100581.47
2022-12-08T21:00:50.962Z,100584.59
2022-12-08T21:03:18.681Z,100588.34
2022-12-08T21:05:50.375Z,100590.44
2022-12-08T21:08:17.586Z,100592.53
2022-12-08T21:10:44.487Z,100589.84
2022-12-08T21:13:11.584Z,100599.66
2022-12-08T21:15:38.213Z,100595.28
2022-12-08T21:18:04.793Z,100592.41
2022-12-08T21:20:31.528Z,100591.41
2022-12-08T21:22:58.184Z,100601.25
2022-12-08T21:25:24.663Z,100592.41
2022-12-08T21:27:51.096Z,100597.47
2022-12-08T21:30:17.818Z,100594.94
2022-12-08T21:32:44.467Z,100602.34
2022-12-08T21:35:11.177Z,100596.06
2022-12-08T21:37:38.017Z,100597.28
2022-12-08T21:40:06.137Z,100596.25
2022-12-08T21:42:45.269Z,100600.53
2022-12-08T21:45:16.516Z,100602.38
2022-12-08T21:47:45.103Z,100605.09
2022-12-08T21:50:12.457Z,100599.56
2022-12-08T21:52:41.169Z,100596.06
2022-12-08T21:55:08.730Z,100591.66
2022-12-08T21:57:35.534Z,100593.28
2022-12-08T22:00:02.156Z,100599.53
2022-12-08T22:02:28.904Z,100598.56
2022-12-08T22:04:55.554Z,100608.97
2022-12-08T22:07:22.501Z,100602.25
2022-12-08T22:09:49.331Z,100606.63
2022-12-08T22:12:17.260Z,100604.63
2022-12-08T22:14:44.139Z,100606.03
2022-12-08T22:17:11.192Z,100602.69
2022-12-08T22:19:37.943Z,100616.06
2022-12-08T22:22:04.409Z,100617.81
2022-12-08T22:24:31.342Z,100613.06
2022-12-08T22:26:57.949Z,100631.97
2022-12-08T22:29:24.532Z,100626.84
2022-12-08T22:31:51.110Z,100630.09
2022-12-08T22:34:17.735Z,100626.28
2022-12-08T22:36:44.518Z,100627.00
2022-12-08T22:39:11.412Z,100621.75
2022-12-08T22:41:37.890Z,100627.34
2022-12-08T22:44:07.962Z,100622.34
2022-12-08T22:46:34.905Z,100622.97
2022-12-08T22:49:02.001Z,100616.50
2022-12-08T22:51:28.597Z,100621.16
2022-12-08T22:53:55.183Z,100620.56
2022-12-08T22:56:21.942Z,100613.63
2022-12-08T22:58:48.624Z,100608.84
2022-12-08T23:01:27.225Z,100608.75
2022-12-08T23:03:54.084Z,100605.66
2022-12-08T23:06:20.752Z,100605.09
2022-12-08T23:08:47.619Z,100608.16
2022-12-08T23:11:14.529Z,100603.72
2022-12-08T23:13:41.250Z,100606.94
2022-12-08T23:16:09.082Z,100599.41
2022-12-08T23:18:36.590Z,100601.84
2022-12-08T23:21:08.329Z,100592.94
2022-12-08T23:23:34.855Z,100599.50
2022-12-08T23:26:03.059Z,100603.63
2022-12-08T23:28:29.684Z,100602.38
2022-12-08T23:30:56.179Z,100587.97
2022-12-08T23:33:22.683Z,100603.63
2022-12-08T23:35:58.753Z,100590.19
2022-12-08T23:38:25.984Z,100604.56
2022-12-08T23:40:52.754Z,100612.66
2022-12-08T23:43:19.658Z,100594.75
2022-12-08T23:45:48.380Z,100613.19
2022-12-08T23:48:15.037Z,100607.41
2022-12-08T23:50:41.683Z,100611.72
2022-12-08T23:53:08.103Z,100613.41
2022-12-08T23:55:34.815Z,100597.91
2022-12-08T23:58:01.466Z,100600.78
